West Linn, OR

2:32 AM PST on January 27, 2015 (GMT -0800)
Sunburst II | Change Station
CLOSE
Current Station
Personal Weather Station
Location: West Linn, OR
Elevation: 689 ft
Nearby Weather Stations

Elev 689 ft 45.38 °N, 122.65 °W | Updated 36 seconds ago

Fog
Fog
41.9 °F
Feels Like 42 °F
N
0.0
Wind Variable Wind from WSW
Gusts 0.0 mph

Today
High -- | Low -- °F
--% Chance of Precip.
Yesterday
High -- | Low -- °F
Precip. -- in
7:36 AM 5:10 PM
First Quarter, 53% visible
Pressure 30.03 in
Visibility 0.2 miles
Clouds
Windchill 42 °F
Dew Point 42 °F
Humidity 100%
Rainfall 0.00 in
Snow Depth Not available.
UV Not available.
Pollen 2.60 out of 12
Air Quality Not available.
Flu Activity Not available.
SPECI KUAO 271025Z AUTO 00000KT 1/4SM FG VV002 07/07 A3003 RMK AO2 T00670067

More Conditions Fewer Conditions

Pressure 30.03 in
Visibility 0.2 miles
Clouds
Windchill 42 °F
Dew Point 42 °F
Humidity 100%
Rainfall 0.00 in
Snow Depth Not available.
UV Not available.
Pollen 2.60 out of 12
Air Quality Not available.
Flu Activity Not available.
SPECI KUAO 271025Z AUTO 00000KT 1/4SM FG VV002 07/07 A3003 RMK AO2 T00670067

More Conditions Fewer Conditions

10-Day Weather Forecast

Almanac

Astronomy

Jan. 27, 2015 Rise Set
Actual Time
Civil Twilight
Nautical Twilight
Astronomical Twilight
Moon
Length of Visible Light
Length of Day
Tomorrow will be .
, % of the Moon is Illuminated

Today's Extremes

State Highs State Lows

Community

WunderPhotos

Upload Photos

1,790,562 photos uploaded!

WunderBlogs® & News

Nearby

Air Quality

  Air Quality AQ Index Pollutant
Not available.

Snow Depth

Station Depth Elevation

Earthquake Activity

City Distance Mag. Time & Date
Minimum magnitude displayed is 2.5.

Coastal Water Temperatures

Place Temperature

Nearby Weather Stations